Startpagina
METAR-TAF:

METAR-TAF

Vliegvelden :

Kigali International Airport

Kigali, Rwanda

breedte: 01-58S, lengte: 030-07E, hoogte: 1491 m

Actueel weer

Dit bericht is 46 minuten geleden gemaakt, om 01:30 UTC
Wind 2 kt uit variabele richting
Temperatuur 18°C
Vochtigheid 64%
Druk 1023 hPa
Zicht 10 km of meer
Weinig wolken op 2500 ft

METAR: HRYR 240130Z VRB02KT 9999 FEW025 18/11 Q1023 NOSIG

Tijdstip: 04:16 (02:16 UTC)

Verwachting

Dit bericht is 3 uur en het 16 minuten geleden gemaakt, om 23:00 UTC
Verwachting geldig van 24 om 00 UTC tot 25 om 06 UTC
Wind 6 kt uit het noordwesten
Zicht 10 km of meer
Weinig wolken op 2500 ft
Wijzigt naar
van 24 om 08 UTC tot 24 om 11 UTC
Wind 8 kt uit het zuiden
Verspreide wolken op 2500 ft
Wijzigt naar
van 24 om 14 UTC tot 24 om 17 UTC
Wind 10 kt uit het oostzuidoosten
Van 24 om 2200 UTC
Wind 4 kt uit het noordnoordwesten
Weinig wolken op 2600 ft

TAF: HRYR 232300Z 2400/2506 32006KT 9999 FEW025 BECMG 2408/2411 18008KT SCT025 BECMG 2414/2417 11010KT FM242200 33004KT FEW026

Waarnemingen en weersverwachtingen van meer dan 4000 vliegvelden (METAR en TAF).

De beschikbare stations zijn de gele en rode punten op de kaart.

Ga met uw muis naar het station om de naam te zien.

Klik dan om waarnemingen en weersverwachtingen te zien.

kaart wijzigen: klik op de groene knoppen met een zwart kruis om in te zoomen, op de groene knop met een streepje om uit te zoomen of op de groene pijlen voor aangrenzende kaarten.


METAR-TAF: